Time;durP1;ratioP1;P1;durP2;ratioP2;P2;SDS_P1;SDS_P2;PMS_P1;PMS_P2;Temp;Humidity;BMP_temperature;BMP_pressure;BME280_temperature;BME280_humidity;BME280_pressure;Samples;Min_cycle;Max_cycle;Signal;HPM_P1;HPM_P2
2022/08/28 00:01:52;;;;;;;8.43;4.05;;;16.10;79.30;;;;;;4995452;28;20034;-73
2022/08/28 00:04:17;;;;;;;8.65;3.88;;;16.10;79.10;;;;;;5032703;28;20042;-73
2022/08/28 00:06:43;;;;;;;11.48;4.15;;;16.10;79.10;;;;;;4993563;28;20034;-72
2022/08/28 00:09:09;;;;;;;10.02;3.88;;;16.10;79.10;;;;;;4997364;28;20038;-74
2022/08/28 00:11:36;;;;;;;10.63;4.13;;;16.10;79.10;;;;;;4999655;28;20373;-72
2022/08/28 00:14:03;;;;;;;9.30;3.70;;;16.10;79.20;;;;;;5006944;28;20022;-73
2022/08/28 00:16:30;;;;;;;7.97;3.78;;;16.10;79.10;;;;;;4992035;28;20474;-74
2022/08/28 00:18:56;;;;;;;8.73;4.00;;;16.20;78.90;;;;;;4992180;28;20470;-72
2022/08/28 00:21:21;;;;;;;10.88;4.65;;;16.10;78.90;;;;;;4992629;28;20045;-72
2022/08/28 00:23:47;;;;;;;11.55;4.70;;;16.20;78.70;;;;;;5000403;28;20030;-72
2022/08/28 00:27:51;;;;;;;11.10;4.20;;;16.20;78.70;;;;;;4998412;28;20440;-73
2022/08/28 00:28:59;;;;;;;9.88;4.05;;;16.20;78.60;;;;;;4998900;28;20075;-72
2022/08/28 00:31:25;;;;;;;10.00;4.78;;;16.30;78.50;;;;;;4998062;28;20046;-72
2022/08/28 00:33:51;;;;;;;9.55;4.20;;;16.30;78.50;;;;;;4991876;28;20364;-72
2022/08/28 00:36:17;;;;;;;8.15;4.25;;;16.40;78.40;;;;;;5002205;28;20087;-72
2022/08/28 00:38:43;;;;;;;11.00;4.22;;;16.30;78.30;;;;;;4989559;28;20055;-76
2022/08/28 00:41:09;;;;;;;8.93;4.40;;;16.30;78.30;;;;;;5005265;28;20485;-73
2022/08/28 00:43:42;;;;;;;10.07;4.78;;;16.30;78.30;;;;;;5003916;28;20061;-72
2022/08/28 00:46:14;;;;;;;10.35;4.70;;;16.30;78.50;;;;;;4992494;28;20117;-73
2022/08/28 00:48:40;;;;;;;10.85;4.30;;;16.30;78.50;;;;;;5010281;28;20065;-74
2022/08/28 00:53:53;;;;;;;11.02;4.55;;;16.30;78.60;;;;;;5004353;28;20381;-73
2022/08/28 00:56:19;;;;;;;11.77;4.53;;;16.30;78.70;;;;;;5001860;28;20037;-72
2022/08/28 00:58:48;;;;;;;9.98;4.22;;;16.30;78.70;;;;;;5002142;28;20022;-72
2022/08/28 01:01:14;;;;;;;11.07;4.85;;;16.30;78.80;;;;;;4995235;28;20042;-72
2022/08/28 01:03:40;;;;;;;14.32;4.75;;;16.30;78.90;;;;;;4998918;28;20468;-72
2022/08/28 01:06:07;;;;;;;10.43;4.57;;;16.20;78.90;;;;;;4990721;28;20157;-73
2022/08/28 01:08:35;;;;;;;13.55;5.20;;;16.20;79.10;;;;;;5003451;28;20366;-73
2022/08/28 01:11:03;;;;;;;10.98;5.22;;;16.20;79.20;;;;;;5038464;28;20121;-74
2022/08/28 01:13:29;;;;;;;12.63;4.75;;;16.10;79.30;;;;;;4989096;28;20048;-73
2022/08/28 01:15:57;;;;;;;13.90;5.57;;;16.20;79.30;;;;;;4993341;28;20062;-73
2022/08/28 01:18:23;;;;;;;12.57;5.82;;;16.10;79.40;;;;;;5008173;28;20037;-73
2022/08/28 01:21:13;;;;;;;11.35;4.85;;;16.10;79.50;;;;;;5004865;28;20484;-74
2022/08/28 01:23:56;;;;;;;11.68;5.10;;;16.10;79.40;;;;;;5000805;28;20037;-74
2022/08/28 01:26:24;;;;;;;14.18;5.72;;;16.10;79.60;;;;;;5031325;28;20104;-73
2022/08/28 01:28:51;;;;;;;12.05;5.75;;;16.10;79.60;;;;;;4994396;28;20034;-73
2022/08/28 01:31:17;;;;;;;14.77;5.70;;;16.10;79.60;;;;;;4992975;28;20512;-72
2022/08/28 01:33:44;;;;;;;12.45;5.60;;;16.10;79.60;;;;;;4991901;28;20042;-72
2022/08/28 01:36:11;;;;;;;12.05;5.47;;;16.10;79.60;;;;;;4996155;28;20120;-73
2022/08/28 01:38:37;;;;;;;11.50;5.75;;;16.10;79.50;;;;;;4993309;28;20030;-71
2022/08/28 01:41:03;;;;;;;13.13;5.35;;;16.10;79.50;;;;;;5007984;28;20057;-74
2022/08/28 01:43:30;;;;;;;11.80;5.85;;;16.10;79.50;;;;;;4992560;28;20731;-75
2022/08/28 01:46:00;;;;;;;11.02;5.45;;;16.10;79.60;;;;;;4985950;28;20050;-73
2022/08/28 01:48:28;;;;;;;12.07;5.95;;;16.00;79.60;;;;;;4998837;28;20045;-73
2022/08/28 01:50:54;;;;;;;11.20;6.03;;;16.00;79.70;;;;;;5005442;28;20022;-73
2022/08/28 01:53:24;;;;;;;17.85;5.93;;;16.10;79.60;;;;;;4999745;28;20661;-73
2022/08/28 01:55:51;;;;;;;12.75;5.70;;;16.10;79.50;;;;;;5004427;28;20180;-72
2022/08/28 01:58:17;;;;;;;12.63;5.82;;;16.10;79.50;;;;;;4995981;28;20283;-72
2022/08/28 02:00:43;;;;;;;13.10;5.95;;;16.10;79.50;;;;;;5003528;28;20459;-73
2022/08/28 02:03:09;;;;;;;14.23;5.47;;;16.10;79.50;;;;;;4998384;28;20077;-72
2022/08/28 02:05:35;;;;;;;15.32;6.18;;;16.10;79.40;;;;;;4995481;28;20033;-73
2022/08/28 02:08:03;;;;;;;10.55;5.55;;;16.20;79.40;;;;;;4995838;28;20026;-72
2022/08/28 02:10:32;;;;;;;13.77;5.68;;;16.10;79.50;;;;;;5002576;28;20462;-75
2022/08/28 02:12:59;;;;;;;15.02;6.63;;;16.10;79.50;;;;;;4995442;28;20046;-72
2022/08/28 02:15:26;;;;;;;18.02;6.53;;;16.10;79.50;;;;;;4999717;28;20069;-73
2022/08/28 02:17:52;;;;;;;12.25;6.15;;;16.20;79.50;;;;;;5000832;28;20030;-73
2022/08/28 02:20:18;;;;;;;16.67;5.93;;;16.20;79.50;;;;;;4999049;28;20355;-72
2022/08/28 02:22:44;;;;;;;16.33;6.28;;;16.20;79.40;;;;;;4998744;28;20036;-73
2022/08/28 02:25:10;;;;;;;12.70;6.13;;;16.30;79.50;;;;;;4997135;28;20030;-74
2022/08/28 02:27:37;;;;;;;13.57;5.82;;;16.30;79.20;;;;;;4998398;28;20034;-72
2022/08/28 02:30:05;;;;;;;10.52;5.60;;;16.30;79.00;;;;;;4988049;28;20049;-73
2022/08/28 02:32:31;;;;;;;15.18;6.25;;;16.40;78.90;;;;;;5004556;28;20513;-75
2022/08/28 02:34:56;;;;;;;14.70;5.38;;;16.40;78.50;;;;;;4995735;28;20046;-72
2022/08/28 02:37:23;;;;;;;16.17;7.03;;;16.40;78.20;;;;;;5004390;28;20053;-72
2022/08/28 02:39:50;;;;;;;11.77;6.03;;;16.40;78.10;;;;;;4995648;28;20023;-73
2022/08/28 02:42:15;;;;;;;13.07;5.32;;;16.50;78.00;;;;;;4997487;28;20030;-73
2022/08/28 02:44:41;;;;;;;14.18;6.25;;;16.50;77.80;;;;;;5006668;28;20030;-73
2022/08/28 02:47:07;;;;;;;17.52;6.43;;;16.50;77.60;;;;;;4999822;28;20045;-73
2022/08/28 02:49:33;;;;;;;17.40;6.28;;;16.50;77.50;;;;;;4991143;28;20049;-73
2022/08/28 02:51:59;;;;;;;15.15;6.88;;;16.50;77.20;;;;;;4990322;28;20401;-75
2022/08/28 02:54:25;;;;;;;13.70;6.43;;;16.60;77.20;;;;;;5007356;28;20454;-72
2022/08/28 02:56:51;;;;;;;14.23;6.57;;;16.60;76.80;;;;;;4998340;28;20038;-73
2022/08/28 02:59:17;;;;;;;15.27;6.35;;;16.60;76.70;;;;;;4997699;28;20030;-73
2022/08/28 03:01:43;;;;;;;14.82;6.55;;;16.60;76.50;;;;;;5004135;28;20041;-73
2022/08/28 03:04:09;;;;;;;14.93;6.25;;;16.60;76.60;;;;;;4991205;28;20030;-73
2022/08/28 03:06:35;;;;;;;14.48;6.70;;;16.60;76.60;;;;;;4997543;28;20081;-73
2022/08/28 03:09:00;;;;;;;11.38;5.88;;;16.60;76.40;;;;;;4996962;28;20037;-75
2022/08/28 03:11:26;;;;;;;13.07;6.55;;;16.60;76.20;;;;;;4994347;28;20514;-73
2022/08/28 03:13:52;;;;;;;17.63;6.60;;;16.70;76.10;;;;;;4999104;28;20062;-73
2022/08/28 03:16:18;;;;;;;16.50;6.10;;;16.70;75.90;;;;;;4991694;28;20030;-72
2022/08/28 03:18:44;;;;;;;14.77;6.53;;;16.60;76.00;;;;;;5006819;28;20029;-74
2022/08/28 03:21:10;;;;;;;14.63;6.40;;;16.60;76.00;;;;;;4990358;28;20409;-74
2022/08/28 03:23:37;;;;;;;16.38;6.53;;;16.60;75.90;;;;;;4990769;28;20027;-72
2022/08/28 03:26:06;;;;;;;12.27;5.93;;;16.60;75.50;;;;;;4992229;28;20030;-73
2022/08/28 03:28:35;;;;;;;17.05;6.25;;;16.60;75.60;;;;;;4990598;28;20122;-75
2022/08/28 03:31:01;;;;;;;13.70;5.90;;;16.60;75.50;;;;;;4993807;28;20122;-74
2022/08/28 03:33:27;;;;;;;16.77;6.13;;;16.70;75.30;;;;;;4995720;28;20378;-73
2022/08/28 03:35:53;;;;;;;13.88;5.40;;;16.70;75.30;;;;;;4995051;28;20038;-73
2022/08/28 03:38:20;;;;;;;11.40;5.40;;;16.70;75.40;;;;;;4993630;28;20026;-72
2022/08/28 03:40:47;;;;;;;15.60;6.13;;;16.70;75.10;;;;;;5002734;28;20038;-72
2022/08/28 03:43:16;;;;;;;13.20;5.88;;;16.70;74.70;;;;;;4996416;28;20120;-72
2022/08/28 03:45:51;;;;;;;11.68;5.20;;;16.60;74.70;;;;;;5003095;28;20034;-73
2022/08/28 03:48:18;;;;;;;15.45;5.43;;;16.60;74.50;;;;;;4990804;28;20050;-72
2022/08/28 03:50:44;;;;;;;14.77;5.43;;;16.70;74.40;;;;;;5024935;28;20038;-73
2022/08/28 03:53:09;;;;;;;14.40;5.32;;;16.70;74.10;;;;;;5002306;28;20091;-73
2022/08/28 03:55:35;;;;;;;15.02;4.80;;;16.70;73.90;;;;;;5006096;28;20053;-72
2022/08/28 03:58:01;;;;;;;13.45;4.80;;;16.70;74.10;;;;;;4994605;28;20141;-73
2022/08/28 04:00:26;;;;;;;14.77;4.93;;;16.70;74.00;;;;;;4993335;28;20026;-72
2022/08/28 04:02:52;;;;;;;18.13;5.03;;;16.70;73.80;;;;;;5000203;28;20049;-72
2022/08/28 04:05:18;;;;;;;13.95;5.57;;;16.70;73.80;;;;;;4989373;28;20038;-72
2022/08/28 04:07:44;;;;;;;16.60;4.95;;;16.60;73.70;;;;;;4994102;28;20031;-73
2022/08/28 04:10:11;;;;;;;12.52;4.72;;;16.70;73.70;;;;;;5004775;28;20030;-73
2022/08/28 04:12:36;;;;;;;12.77;4.38;;;16.60;73.60;;;;;;5005442;28;20367;-73
2022/08/28 04:15:03;;;;;;;15.23;4.65;;;16.60;73.70;;;;;;4991963;28;20033;-72
2022/08/28 04:17:29;;;;;;;15.00;5.03;;;16.60;73.60;;;;;;4995288;28;20042;-74
2022/08/28 04:19:55;;;;;;;15.20;5.00;;;16.60;73.70;;;;;;5029389;28;20056;-72
2022/08/28 04:22:20;;;;;;;12.98;4.95;;;16.60;73.50;;;;;;4998049;28;20149;-72
2022/08/28 04:24:46;;;;;;;16.17;4.70;;;16.60;73.50;;;;;;4997828;28;20037;-72
2022/08/28 04:27:13;;;;;;;17.55;4.95;;;16.60;73.50;;;;;;5004766;28;20351;-73
2022/08/28 04:29:39;;;;;;;16.25;5.00;;;16.60;73.50;;;;;;4995964;28;20033;-73
2022/08/28 04:32:05;;;;;;;13.77;5.25;;;16.60;73.20;;;;;;5024724;28;20041;-73
2022/08/28 04:34:31;;;;;;;11.25;4.28;;;16.60;73.20;;;;;;5006351;28;20037;-73
2022/08/28 04:36:57;;;;;;;17.85;5.22;;;16.70;73.30;;;;;;4997241;28;20088;-72
2022/08/28 04:39:23;;;;;;;14.40;4.40;;;16.60;73.30;;;;;;4994097;28;20022;-72
2022/08/28 04:41:49;;;;;;;15.20;4.82;;;16.60;73.20;;;;;;4995991;28;20038;-72
2022/08/28 04:44:15;;;;;;;11.52;4.20;;;16.60;73.40;;;;;;5004783;28;20022;-71
2022/08/28 04:46:40;;;;;;;12.27;4.10;;;16.60;73.40;;;;;;4998313;28;20042;-72
2022/08/28 04:49:06;;;;;;;16.55;4.70;;;16.60;73.30;;;;;;5000607;28;20030;-72
2022/08/28 04:51:32;;;;;;;15.40;4.75;;;16.60;73.30;;;;;;5004119;28;20034;-72
2022/08/28 04:54:00;;;;;;;14.18;4.25;;;16.60;73.40;;;;;;5003077;28;20065;-73
2022/08/28 04:56:26;;;;;;;11.25;4.32;;;16.70;73.10;;;;;;5003264;28;20026;-72
2022/08/28 04:58:52;;;;;;;12.77;4.43;;;16.60;73.10;;;;;;5001393;28;20405;-73
2022/08/28 05:01:22;;;;;;;12.15;4.13;;;16.60;73.20;;;;;;5002702;28;20044;-72
2022/08/28 05:03:56;;;;;;;13.02;4.72;;;16.60;73.20;;;;;;5003382;28;20350;-72
2022/08/28 05:06:25;;;;;;;14.15;4.00;;;16.60;73.30;;;;;;5004174;28;20089;-72
2022/08/28 05:08:51;;;;;;;12.90;4.47;;;16.60;73.30;;;;;;5002412;28;20042;-72
2022/08/28 05:11:20;;;;;;;11.20;3.80;;;16.70;73.10;;;;;;4997133;28;20093;-72
2022/08/28 05:13:49;;;;;;;12.00;4.38;;;16.60;73.40;;;;;;5002080;28;20524;-72
2022/08/28 05:16:17;;;;;;;20.08;5.00;;;16.60;73.50;;;;;;4990966;28;20023;-73
2022/08/28 05:18:43;;;;;;;14.98;4.60;;;16.60;73.40;;;;;;5003049;28;20053;-72
2022/08/28 05:21:14;;;;;;;12.68;5.00;;;16.60;73.40;;;;;;5000039;28;20597;-72
2022/08/28 05:23:40;;;;;;;16.90;5.45;;;16.60;73.40;;;;;;4999071;28;20035;-72
2022/08/28 05:26:11;;;;;;;12.55;4.05;;;16.60;73.30;;;;;;5014922;28;20025;-72
2022/08/28 05:28:38;;;;;;;13.82;3.95;;;16.60;73.50;;;;;;5010785;28;20033;-74
2022/08/28 05:31:16;;;;;;;13.82;4.40;;;16.60;73.50;;;;;;4995115;28;20030;-72
2022/08/28 05:33:43;;;;;;;12.18;4.30;;;16.60;73.60;;;;;;5001328;28;20031;-72
2022/08/28 05:36:10;;;;;;;13.38;4.38;;;16.60;73.60;;;;;;4990393;28;20040;-72
2022/08/28 05:38:36;;;;;;;13.07;4.25;;;16.60;73.30;;;;;;5003348;28;20098;-72
2022/08/28 05:41:02;;;;;;;12.13;4.25;;;16.60;73.40;;;;;;5002186;28;20042;-72
2022/08/28 05:43:30;;;;;;;14.40;4.35;;;16.60;73.40;;;;;;5006166;28;20072;-72
2022/08/28 05:46:02;;;;;;;17.63;4.68;;;16.60;73.30;;;;;;4996174;28;20042;-73
2022/08/28 05:48:30;;;;;;;16.23;4.40;;;16.60;73.40;;;;;;4992973;28;20033;-73
2022/08/28 05:51:03;;;;;;;11.30;3.90;;;16.70;73.30;;;;;;5001745;28;20053;-73
2022/08/28 05:53:30;;;;;;;14.38;4.25;;;16.70;73.20;;;;;;4993707;28;20025;-73
2022/08/28 05:55:55;;;;;;;12.15;3.97;;;16.70;73.10;;;;;;5002756;28;20034;-74
2022/08/28 05:58:32;;;;;;;12.60;4.20;;;16.80;72.90;;;;;;4998241;28;20137;-72
2022/08/28 06:01:14;;;;;;;12.70;4.32;;;16.80;73.20;;;;;;5001065;28;20448;-73
2022/08/28 06:03:41;;;;;;;14.77;4.20;;;16.90;73.00;;;;;;5006195;28;20369;-73
2022/08/28 06:06:08;;;;;;;12.77;5.43;;;16.80;73.10;;;;;;5008429;28;20186;-72
2022/08/28 06:08:35;;;;;;;10.15;3.55;;;16.90;72.80;;;;;;4997434;28;20041;-72
2022/08/28 06:11:01;;;;;;;13.07;4.22;;;16.90;72.60;;;;;;5001909;28;20038;-73
2022/08/28 06:13:28;;;;;;;9.38;3.03;;;17.00;72.50;;;;;;5006022;28;20050;-73
2022/08/28 06:15:55;;;;;;;21.77;4.20;;;17.00;72.40;;;;;;4990163;28;20034;-73
2022/08/28 06:18:21;;;;;;;13.20;3.75;;;17.00;73.00;;;;;;5003431;28;20052;-73
2022/08/28 06:20:47;;;;;;;12.55;3.45;;;17.10;72.40;;;;;;4993830;28;20030;-72
2022/08/28 06:23:18;;;;;;;10.35;3.35;;;17.10;71.80;;;;;;5038737;28;20037;-72
2022/08/28 06:25:47;;;;;;;15.15;3.88;;;17.10;72.20;;;;;;5003004;28;20073;-72
2022/08/28 06:28:23;;;;;;;16.10;3.67;;;17.20;71.80;;;;;;4990960;28;20041;-72
2022/08/28 06:30:50;;;;;;;13.65;4.25;;;17.20;71.80;;;;;;5004926;28;20418;-73
2022/08/28 06:33:16;;;;;;;12.00;3.50;;;17.20;71.70;;;;;;4996694;28;20314;-72
2022/08/28 06:35:43;;;;;;;11.23;4.05;;;17.20;71.40;;;;;;4995841;28;20112;-72
2022/08/28 06:38:10;;;;;;;10.27;3.35;;;17.20;71.70;;;;;;4998594;28;20489;-72
2022/08/28 06:40:45;;;;;;;8.65;3.10;;;17.30;71.70;;;;;;5004754;28;20066;-71
2022/08/28 06:43:12;;;;;;;11.48;4.43;;;17.40;71.40;;;;;;4992923;28;20041;-75
2022/08/28 06:45:43;;;;;;;11.85;3.13;;;17.40;70.80;;;;;;4998198;28;20470;-72
2022/08/28 06:48:10;;;;;;;13.23;3.55;;;17.60;71.00;;;;;;5002114;28;20042;-72
2022/08/28 06:50:41;;;;;;;11.77;3.83;;;17.90;69.90;;;;;;4997374;28;20049;-73
2022/08/28 06:53:08;;;;;;;12.95;3.97;;;18.10;69.70;;;;;;4992276;28;20100;-74
2022/08/28 06:55:35;;;;;;;13.88;4.22;;;18.00;69.00;;;;;;5003725;28;20030;-73
2022/08/28 06:58:01;;;;;;;10.45;3.50;;;17.80;69.30;;;;;;5001840;28;20378;-73
2022/08/28 07:00:27;;;;;;;10.65;3.90;;;17.90;69.00;;;;;;5003372;28;20489;-73
2022/08/28 07:02:53;;;;;;;13.07;3.75;;;17.90;69.30;;;;;;4991560;28;20042;-72
2022/08/28 07:05:18;;;;;;;8.82;3.28;;;18.00;69.20;;;;;;4999151;28;20034;-73
2022/08/28 07:07:44;;;;;;;11.38;3.28;;;18.10;68.80;;;;;;4997825;28;20027;-73
2022/08/28 07:10:10;;;;;;;10.05;3.55;;;18.10;67.90;;;;;;4992876;28;20385;-73
2022/08/28 07:12:35;;;;;;;11.30;3.38;;;18.10;68.20;;;;;;4983914;28;20071;-73
2022/08/28 07:15:03;;;;;;;10.18;3.35;;;18.00;68.80;;;;;;4988597;28;20476;-73
2022/08/28 07:17:29;;;;;;;9.57;3.55;;;18.20;68.30;;;;;;4992961;28;20031;-73
2022/08/28 07:19:55;;;;;;;10.98;3.33;;;18.40;67.40;;;;;;4997864;28;20033;-72
2022/08/28 07:22:21;;;;;;;10.10;3.72;;;18.50;67.30;;;;;;4994859;28;20028;-73
2022/08/28 07:24:47;;;;;;;9.65;3.28;;;18.60;67.10;;;;;;4995249;28;20038;-72
2022/08/28 07:27:13;;;;;;;12.95;3.70;;;18.70;66.70;;;;;;4993866;28;20092;-71
2022/08/28 07:29:39;;;;;;;9.93;3.53;;;18.70;66.00;;;;;;4988944;28;20038;-74
2022/08/28 07:32:05;;;;;;;12.30;3.58;;;18.90;65.80;;;;;;4994923;28;20080;-72
2022/08/28 07:34:31;;;;;;;13.63;3.53;;;18.80;66.10;;;;;;4992536;28;20034;-73
2022/08/28 07:37:02;;;;;;;13.18;3.55;;;18.60;65.60;;;;;;4987105;28;20432;-72
2022/08/28 07:39:29;;;;;;;10.50;3.50;;;18.60;65.60;;;;;;4987473;28;20458;-73
2022/08/28 07:41:55;;;;;;;12.75;3.53;;;18.60;66.50;;;;;;4995016;28;20080;-72
2022/08/28 07:47:06;;;;;;;9.48;3.92;;;18.70;65.50;;;;;;4989445;28;20037;-73
2022/08/28 07:49:33;;;;;;;11.73;3.45;;;18.80;65.60;;;;;;4993098;28;20039;-74
2022/08/28 07:51:59;;;;;;;10.23;3.65;;;18.80;65.90;;;;;;5004580;28;20414;-74
2022/08/28 07:54:25;;;;;;;16.08;3.83;;;18.90;65.10;;;;;;4989122;28;20505;-74
2022/08/28 07:56:51;;;;;;;10.18;3.47;;;18.80;65.50;;;;;;4995658;28;20039;-73
2022/08/28 07:59:18;;;;;;;9.65;3.10;;;19.00;64.50;;;;;;4992486;28;20034;-73
2022/08/28 08:01:46;;;;;;;10.45;3.90;;;19.10;64.10;;;;;;4996463;28;20053;-73
2022/08/28 08:04:14;;;;;;;12.73;3.35;;;19.30;63.90;;;;;;4993423;28;20029;-76
2022/08/28 08:06:42;;;;;;;9.32;3.55;;;19.40;62.90;;;;;;4988115;28;20030;-74
2022/08/28 08:09:09;;;;;;;11.75;3.78;;;19.40;63.20;;;;;;4985775;28;20035;-74
2022/08/28 08:11:35;;;;;;;13.70;4.43;;;19.30;62.80;;;;;;4986559;28;20382;-73
2022/08/28 08:14:04;;;;;;;11.45;3.97;;;19.30;63.00;;;;;;4996999;28;20046;-73
2022/08/28 08:16:33;;;;;;;9.25;3.72;;;19.40;63.20;;;;;;4989413;28;20041;-73
2022/08/28 08:18:59;;;;;;;10.38;3.72;;;19.80;63.00;;;;;;4996615;28;20082;-74
2022/08/28 08:21:26;;;;;;;14.95;3.65;;;19.90;61.70;;;;;;4987755;28;20117;-72
2022/08/28 08:23:52;;;;;;;13.15;4.03;;;19.90;61.40;;;;;;4995651;28;20363;-73
2022/08/28 08:26:20;;;;;;;9.82;3.08;;;19.70;61.80;;;;;;4988512;28;20096;-72
2022/08/28 08:28:47;;;;;;;10.63;3.30;;;20.10;61.60;;;;;;4989152;28;20034;-73
2022/08/28 08:31:23;;;;;;;12.85;3.60;;;20.20;60.30;;;;;;4991862;28;20057;-75
2022/08/28 08:33:53;;;;;;;11.05;3.53;;;20.30;60.40;;;;;;4999882;28;20482;-72
2022/08/28 08:36:21;;;;;;;11.35;3.38;;;20.50;59.30;;;;;;4986763;28;20430;-72
2022/08/28 08:38:48;;;;;;;14.57;4.20;;;20.20;59.20;;;;;;4987453;28;20041;-73
2022/08/28 08:41:20;;;;;;;13.93;3.83;;;20.20;59.10;;;;;;4986949;28;20121;-73
2022/08/28 08:44:04;;;;;;;13.27;3.50;;;20.50;57.50;;;;;;4988222;28;20034;-73
2022/08/28 08:46:51;;;;;;;11.55;3.22;;;20.50;57.70;;;;;;5008885;28;20477;-73
2022/08/28 08:49:20;;;;;;;14.23;3.95;;;20.60;57.70;;;;;;5005568;28;20412;-73
2022/08/28 08:52:03;;;;;;;9.15;3.15;;;20.80;56.40;;;;;;5006273;28;20417;-72
2022/08/28 08:54:29;;;;;;;11.98;3.47;;;20.60;55.90;;;;;;5033159;28;20117;-75
2022/08/28 08:56:55;;;;;;;9.60;3.20;;;20.80;56.20;;;;;;5015193;28;20038;-73
2022/08/28 08:59:24;;;;;;;10.40;2.97;;;21.10;54.50;;;;;;5018992;28;20049;-73
2022/08/28 09:02:11;;;;;;;7.97;2.65;;;21.20;55.10;;;;;;5016121;28;20470;-73
2022/08/28 09:04:54;;;;;;;12.40;2.80;;;21.30;53.50;;;;;;5042208;28;20108;-73
2022/08/28 09:07:40;;;;;;;12.00;3.47;;;21.60;52.90;;;;;;5010434;28;20030;-73
2022/08/28 09:10:11;;;;;;;11.27;3.03;;;21.30;54.00;;;;;;5009336;28;20058;-73
2022/08/28 09:13:01;;;;;;;7.97;2.60;;;21.20;54.30;;;;;;5011013;28;20045;-74
2022/08/28 09:15:34;;;;;;;9.73;3.15;;;21.30;54.20;;;;;;5010898;28;20399;-73
2022/08/28 09:18:12;;;;;;;12.60;2.97;;;21.60;52.40;;;;;;5018822;28;20056;-73
2022/08/28 09:20:38;;;;;;;10.40;2.80;;;21.50;51.50;;;;;;5022585;28;20036;-75
2022/08/28 09:23:04;;;;;;;8.45;3.08;;;21.30;52.60;;;;;;5028562;28;20038;-73
2022/08/28 09:25:50;;;;;;;8.50;2.60;;;21.60;51.20;;;;;;5026127;28;20049;-73
2022/08/28 09:28:26;;;;;;;11.98;2.92;;;21.70;52.20;;;;;;5011045;28;20037;-73
2022/08/28 09:31:04;;;;;;;8.23;2.60;;;21.60;51.50;;;;;;5016435;28;20125;-73
2022/08/28 09:33:36;;;;;;;7.43;3.08;;;22.00;51.80;;;;;;5017598;28;20034;-73
2022/08/28 09:36:31;;;;;;;10.68;2.90;;;22.10;49.60;;;;;;5017241;28;20045;-75
2022/08/28 09:39:17;;;;;;;9.13;3.13;;;22.50;50.50;;;;;;5035955;28;20057;-73
2022/08/28 09:44:48;;;;;;;7.97;2.47;;;22.90;49.40;;;;;;5017075;28;20118;-73
2022/08/28 09:47:48;;;;;;;8.93;3.30;;;22.00;49.80;;;;;;5016908;28;20598;-74
2022/08/28 09:50:13;;;;;;;7.50;2.78;;;21.60;51.20;;;;;;5048507;28;20042;-74
2022/08/28 09:52:39;;;;;;;8.77;2.63;;;21.60;51.00;;;;;;5017122;28;20048;-72
2022/08/28 09:55:09;;;;;;;11.27;2.83;;;22.00;49.90;;;;;;5018284;28;20026;-74
2022/08/28 09:57:35;;;;;;;10.25;3.03;;;22.40;50.40;;;;;;5020112;28;20038;-72
2022/08/28 10:00:01;;;;;;;7.38;2.53;;;22.70;49.50;;;;;;5013678;28;20534;-73
2022/08/28 10:02:49;;;;;;;10.20;3.40;;;22.10;49.80;;;;;;5013963;28;20033;-73
2022/08/28 10:05:26;;;;;;;11.55;2.97;;;22.10;51.50;;;;;;5018639;28;20025;-72
2022/08/28 10:08:06;;;;;;;7.32;2.65;;;22.60;50.10;;;;;;5015981;28;20042;-74
2022/08/28 10:10:38;;;;;;;8.18;2.80;;;23.00;48.10;;;;;;5024533;28;20070;-73
2022/08/28 10:13:11;;;;;;;10.40;3.60;;;22.70;49.10;;;;;;5019734;28;20060;-73
2022/08/28 10:16:03;;;;;;;8.93;2.78;;;22.80;49.80;;;;;;5014634;28;20034;-74
2022/08/28 10:18:44;;;;;;;7.72;2.55;;;22.90;48.60;;;;;;4991631;28;20520;-73
2022/08/28 10:21:26;;;;;;;6.90;2.67;;;23.10;48.60;;;;;;4994220;28;20109;-73
2022/08/28 10:24:08;;;;;;;9.10;2.90;;;22.60;48.00;;;;;;4996170;28;20121;-73
2022/08/28 10:26:55;;;;;;;11.45;3.05;;;22.50;49.00;;;;;;5000899;28;20026;-72
2022/08/28 10:29:23;;;;;;;10.43;3.08;;;22.70;48.30;;;;;;4997522;28;20038;-72
2022/08/28 10:32:25;;;;;;;10.93;3.35;;;22.80;48.00;;;;;;5002807;28;20045;-72
2022/08/28 10:35:04;;;;;;;10.13;2.97;;;22.70;49.00;;;;;;4992928;28;20084;-73
2022/08/28 10:38:03;;;;;;;12.68;3.05;;;23.00;47.50;;;;;;5029261;28;20061;-72
2022/08/28 10:40:58;;;;;;;9.93;2.72;;;22.70;48.80;;;;;;5008902;28;20105;-74
2022/08/28 10:43:50;;;;;;;11.02;3.38;;;22.60;48.40;;;;;;5034133;28;20044;-73
2022/08/28 10:46:43;;;;;;;7.40;2.60;;;22.60;49.00;;;;;;5022123;28;20037;-73
2022/08/28 10:49:35;;;;;;;7.25;3.35;;;22.70;48.70;;;;;;5007421;28;20037;-73
2022/08/28 10:52:11;;;;;;;6.53;2.40;;;22.60;48.20;;;;;;5009569;28;20064;-75
2022/08/28 10:54:49;;;;;;;9.77;2.80;;;23.10;48.30;;;;;;5008804;28;20036;-73
2022/08/28 10:57:34;;;;;;;7.38;2.70;;;23.10;48.30;;;;;;5022852;28;20063;-72
2022/08/28 11:00:11;;;;;;;8.48;2.50;;;23.00;48.20;;;;;;5013360;28;20412;-73
2022/08/28 11:02:39;;;;;;;9.02;2.95;;;22.90;49.20;;;;;;5016201;28;20021;-73
2022/08/28 11:05:06;;;;;;;11.35;2.88;;;23.10;48.90;;;;;;5007116;28;20073;-74
2022/08/28 11:07:37;;;;;;;8.07;2.47;;;23.40;48.40;;;;;;5010471;28;20045;-74
2022/08/28 11:10:21;;;;;;;11.02;2.38;;;23.80;47.60;;;;;;5017282;28;20033;-74
2022/08/28 11:12:50;;;;;;;6.43;2.27;;;23.80;46.30;;;;;;5021497;28;20085;-74
2022/08/28 11:15:45;;;;;;;10.25;2.95;;;23.70;46.60;;;;;;5011706;28;20108;-73
2022/08/28 11:18:14;;;;;;;6.18;2.35;;;23.90;46.40;;;;;;5005124;28;20034;-74
2022/08/28 11:20:53;;;;;;;6.78;2.53;;;23.80;47.10;;;;;;5011909;28;20030;-74
2022/08/28 11:23:23;;;;;;;9.95;3.35;;;23.20;47.80;;;;;;5013278;28;20038;-73
2022/08/28 11:25:50;;;;;;;12.02;3.05;;;23.20;49.10;;;;;;5017470;28;20038;-74
2022/08/28 11:28:21;;;;;;;8.50;2.47;;;23.30;48.10;;;;;;5013253;28;20036;-74
2022/08/28 11:31:08;;;;;;;7.60;2.83;;;23.20;49.10;;;;;;5048306;28;20485;-75
2022/08/28 11:33:51;;;;;;;7.00;2.40;;;23.30;48.20;;;;;;5012160;28;20128;-75
2022/08/28 11:36:17;;;;;;;8.27;2.60;;;23.50;46.90;;;;;;5012545;28;20037;-73
2022/08/28 11:38:43;;;;;;;6.95;2.15;;;23.10;48.10;;;;;;5009389;28;20030;-73
2022/08/28 11:41:19;;;;;;;7.85;2.60;;;23.50;48.20;;;;;;5019558;28;20042;-73
2022/08/28 11:43:46;;;;;;;7.45;2.40;;;23.90;47.20;;;;;;5017121;28;20366;-73
2022/08/28 11:46:15;;;;;;;8.63;2.50;;;24.40;44.70;;;;;;5014304;28;20033;-73
2022/08/28 11:48:48;;;;;;;9.68;2.65;;;24.20;44.90;;;;;;5014665;28;20058;-72
2022/08/28 11:51:17;;;;;;;9.57;2.33;;;24.30;45.70;;;;;;5014597;28;20385;-74
2022/08/28 11:53:58;;;;;;;6.05;2.35;;;24.30;45.80;;;;;;5011234;28;20060;-72
2022/08/28 11:56:48;;;;;;;8.93;2.28;;;24.90;45.20;;;;;;5010173;28;20033;-73
2022/08/28 11:59:32;;;;;;;8.07;2.13;;;24.80;44.00;;;;;;5006392;28;20044;-76
2022/08/28 12:02:36;;;;;;;7.50;2.03;;;24.30;45.00;;;;;;5018716;28;20501;-73
2022/08/28 12:05:15;;;;;;;11.45;2.60;;;24.40;45.50;;;;;;5015154;28;20037;-72
2022/08/28 12:07:44;;;;;;;6.60;2.05;;;24.50;45.30;;;;;;5019468;28;20042;-73
2022/08/28 12:10:22;;;;;;;8.23;2.20;;;24.40;45.70;;;;;;5005844;28;20072;-73
2022/08/28 12:12:51;;;;;;;8.52;2.63;;;24.10;46.20;;;;;;5020555;28;20482;-73
2022/08/28 12:15:41;;;;;;;7.97;2.55;;;23.70;46.40;;;;;;5015175;28;20109;-75
2022/08/28 12:18:09;;;;;;;11.25;2.50;;;23.60;46.90;;;;;;5001089;28;20096;-73
2022/08/28 12:21:04;;;;;;;7.35;2.15;;;23.60;47.40;;;;;;5010230;28;20026;-73
2022/08/28 12:23:30;;;;;;;;;;;23.90;45.90;;;;;;4991895;28;20038;-73
2022/08/28 12:26:23;;;;;;;6.55;2.30;;;23.80;46.90;;;;;;4990590;28;19925;-73
2022/08/28 12:29:05;;;;;;;7.47;2.10;;;24.00;47.00;;;;;;4993463;28;20034;-73
2022/08/28 12:34:36;;;;;;;6.03;1.90;;;24.20;43.80;;;;;;5015954;28;20041;-73
2022/08/28 12:37:04;;;;;;;8.02;2.50;;;24.50;44.40;;;;;;5017576;28;20041;-74
2022/08/28 12:39:32;;;;;;;9.70;2.67;;;24.40;44.30;;;;;;5022013;28;20026;-73
2022/08/28 12:42:00;;;;;;;9.18;2.60;;;24.10;45.40;;;;;;5023795;28;20045;-74
2022/08/28 12:44:29;;;;;;;6.50;2.10;;;24.00;46.30;;;;;;5012248;28;20478;-73
2022/08/28 12:46:56;;;;;;;6.60;1.90;;;24.10;46.40;;;;;;5014099;28;20454;-73
2022/08/28 12:49:28;;;;;;;6.00;1.88;;;24.60;45.40;;;;;;5021737;28;20044;-72
2022/08/28 12:52:15;;;;;;;6.95;2.10;;;24.60;44.10;;;;;;5017196;28;20545;-73
2022/08/28 12:54:41;;;;;;;5.93;1.90;;;24.90;44.50;;;;;;5016504;28;20034;-75
2022/08/28 12:57:11;;;;;;;8.30;2.20;;;24.70;43.50;;;;;;5015197;28;20113;-72
2022/08/28 12:59:43;;;;;;;5.97;1.67;;;24.30;44.10;;;;;;5025170;28;20025;-72
2022/08/28 13:02:32;;;;;;;6.95;2.28;;;24.10;45.10;;;;;;5014579;28;20038;-73
2022/08/28 13:05:02;;;;;;;7.68;2.20;;;24.20;45.10;;;;;;5014768;28;20385;-74
2022/08/28 13:07:29;;;;;;;8.93;2.28;;;24.00;45.80;;;;;;5016424;28;20037;-75
2022/08/28 13:10:05;;;;;;;8.20;2.10;;;24.10;45.10;;;;;;5017794;28;20038;-74